Time;durP1;ratioP1;P1;durP2;ratioP2;P2;SDS_P1;SDS_P2;PMS_P1;PMS_P2;Temp;Humidity;BMP_temperature;BMP_pressure;BME280_temperature;BME280_humidity;BME280_pressure;Samples;Min_cycle;Max_cycle;Signal;HPM_P1;HPM_P2
2024/01/06 00:00:58;;;;;;;32.60;16.00;;;;;;;1.49;99.27;99610.90;105656;1252;71344;-51
2024/01/06 00:03:43;;;;;;;33.00;16.30;;;;;;;1.52;99.10;99608.96;105553;1253;81805;-50
2024/01/06 00:06:13;;;;;;;30.70;15.70;;;;;;;1.50;98.90;99606.59;105620;1254;70143;-50
2024/01/06 00:08:41;;;;;;;36.30;17.10;;;;;;;1.51;99.20;99603.30;105581;1253;70095;-51
2024/01/06 00:11:10;;;;;;;29.00;15.30;;;;;;;1.51;98.95;99601.23;105629;1255;69921;-50
2024/01/06 00:13:38;;;;;;;31.60;15.70;;;;;;;1.48;99.02;99596.45;105675;1253;73446;-50
2024/01/06 00:16:06;;;;;;;33.60;16.50;;;;;;;1.48;99.02;99601.96;105622;1255;81533;-50
2024/01/06 00:18:34;;;;;;;32.10;16.60;;;;;;;1.48;98.64;99607.14;105602;1253;71914;-50
2024/01/06 00:21:03;;;;;;;33.50;16.70;;;;;;;1.47;98.99;99612.30;105545;1253;69945;-49
2024/01/06 00:23:31;;;;;;;33.60;16.90;;;;;;;1.49;99.00;99608.83;105569;1256;69985;-51
2024/01/06 00:25:59;;;;;;;30.10;16.90;;;;;;;1.49;98.85;99600.22;105497;1254;72713;-50
2024/01/06 00:28:28;;;;;;;33.10;15.70;;;;;;;1.49;98.82;99595.92;105517;1252;81874;-50
2024/01/06 00:30:56;;;;;;;32.10;15.80;;;;;;;1.49;98.76;99594.02;105570;1253;71634;-51
2024/01/06 00:33:24;;;;;;;30.00;16.10;;;;;;;1.47;98.64;99590.61;105586;1253;69970;-50
2024/01/06 00:35:55;;;;;;;32.50;16.40;;;;;;;1.44;98.60;99587.73;105581;1256;69955;-49
2024/01/06 00:38:23;;;;;;;32.10;17.10;;;;;;;1.45;98.75;99589.95;105569;1253;73224;-50
2024/01/06 00:40:51;;;;;;;32.60;16.70;;;;;;;1.47;98.98;99592.33;105509;1255;81435;-49
2024/01/06 00:43:19;;;;;;;29.90;15.90;;;;;;;1.44;98.65;99588.94;105543;1253;70779;-51
2024/01/06 00:45:48;;;;;;;31.80;16.60;;;;;;;1.40;98.75;99589.66;105523;1254;69935;-50
2024/01/06 00:48:16;;;;;;;31.90;15.90;;;;;;;1.38;98.49;99590.04;105674;1253;69978;-50
2024/01/06 00:50:45;;;;;;;35.00;16.40;;;;;;;1.35;98.43;99591.45;105590;1256;71561;-50
2024/01/06 00:53:13;;;;;;;32.20;17.40;;;;;;;1.32;98.33;99590.12;105577;1256;82017;-49
2024/01/06 00:55:42;;;;;;;31.10;16.70;;;;;;;1.28;98.37;99593.94;105618;1253;72139;-50
2024/01/06 00:58:10;;;;;;;31.40;15.80;;;;;;;1.28;98.49;99603.58;105631;1255;69926;-50
2024/01/06 01:00:38;;;;;;;33.30;15.90;;;;;;;1.29;98.75;99616.65;105589;1252;69996;-50
2024/01/06 01:03:07;;;;;;;36.00;16.90;;;;;;;1.29;98.54;99620.77;105657;1253;73075;-50
2024/01/06 01:05:35;;;;;;;35.80;17.20;;;;;;;1.27;98.39;99624.41;105600;1255;81441;-51
2024/01/06 01:08:04;;;;;;;31.60;16.70;;;;;;;1.25;98.58;99629.80;105531;1256;71654;-50
2024/01/06 01:10:32;;;;;;;31.90;15.30;;;;;;;1.24;98.63;99627.55;105600;1253;69926;-49
2024/01/06 01:13:00;;;;;;;27.40;15.90;;;;;;;1.23;98.60;99623.95;105532;1253;69950;-49
2024/01/06 01:15:28;;;;;;;32.60;17.20;;;;;;;1.22;98.50;99626.20;105538;1255;72864;-50
2024/01/06 01:17:57;;;;;;;30.90;16.20;;;;;;;1.19;98.52;99622.27;105559;1256;82578;-48
2024/01/06 01:20:25;;;;;;;30.50;15.60;;;;;;;1.19;98.61;99622.27;105583;1254;72292;-49
2024/01/06 01:22:53;;;;;;;30.40;15.30;;;;;;;1.18;98.69;99621.95;105553;1253;69900;-49
2024/01/06 01:25:21;;;;;;;33.20;16.80;;;;;;;1.18;98.70;99622.98;105559;1256;69993;-50
2024/01/06 01:27:49;;;;;;;32.80;15.80;;;;;;;1.18;98.61;99625.90;105553;1253;73155;-49
2024/01/06 01:30:20;;;;;;;36.40;16.70;;;;;;;1.17;98.57;99627.47;105563;1252;81994;-48
2024/01/06 01:32:48;;;;;;;33.20;16.30;;;;;;;1.16;98.59;99627.65;105589;1255;71831;-49
2024/01/06 01:35:17;;;;;;;32.90;16.50;;;;;;;1.15;98.63;99633.01;105559;1254;69957;-50
2024/01/06 01:37:45;;;;;;;30.30;16.10;;;;;;;1.15;98.71;99638.15;105534;1255;69999;-50
2024/01/06 01:40:13;;;;;;;32.70;16.60;;;;;;;1.18;98.86;99641.73;105546;1253;73546;-49
2024/01/06 01:42:43;;;;;;;31.30;16.70;;;;;;;1.18;99.00;99641.05;105576;1252;81566;-49
2024/01/06 01:45:11;;;;;;;29.60;15.60;;;;;;;1.18;98.95;99639.84;105544;1253;72190;-49
2024/01/06 01:47:41;;;;;;;32.50;16.60;;;;;;;1.21;99.00;99639.28;105576;1253;69909;-50
2024/01/06 01:50:10;;;;;;;36.80;20.20;;;;;;;1.21;98.86;99637.06;105616;1253;69922;-50
2024/01/06 01:52:40;;;;;;;32.90;17.40;;;;;;;1.20;98.75;99634.48;105601;1253;72870;-51
2024/01/06 01:55:08;;;;;;;31.20;16.40;;;;;;;1.20;99.06;99637.26;105522;1253;81776;-52
2024/01/06 01:57:37;;;;;;;32.90;16.90;;;;;;;1.20;98.85;99637.61;105493;1255;72098;-48
2024/01/06 02:00:06;;;;;;;34.10;17.00;;;;;;;1.18;98.97;99636.40;105438;1253;69940;-50
2024/01/06 02:02:38;;;;;;;33.50;16.70;;;;;;;1.16;98.69;99636.42;105533;1255;71260;-49
2024/01/06 02:05:07;;;;;;;27.60;14.80;;;;;;;1.15;98.78;99638.16;105576;1254;72888;-50
2024/01/06 02:07:35;;;;;;;29.20;15.60;;;;;;;1.15;99.00;99642.64;105602;1253;81944;-49
2024/01/06 02:10:05;;;;;;;29.00;16.00;;;;;;;1.18;99.09;99638.98;105537;1252;71396;-50
2024/01/06 02:12:33;;;;;;;31.50;16.30;;;;;;;1.19;99.12;99636.73;105653;1255;69904;-50
2024/01/06 02:15:01;;;;;;;31.20;16.20;;;;;;;1.18;99.02;99637.43;105508;1253;69978;-49
2024/01/06 02:17:29;;;;;;;34.30;17.40;;;;;;;1.17;99.12;99638.31;105555;1253;73539;-51
2024/01/06 02:19:57;;;;;;;34.00;16.80;;;;;;;1.17;98.99;99636.95;105523;1255;83220;-49
2024/01/06 02:22:25;;;;;;;33.80;17.20;;;;;;;1.17;99.11;99629.88;105553;1253;71675;-49
2024/01/06 02:24:54;;;;;;;30.50;16.20;;;;;;;1.16;99.04;99631.95;105532;1253;69890;-49
2024/01/06 02:27:22;;;;;;;31.20;16.10;;;;;;;1.15;98.90;99631.98;105638;1255;69989;-49
2024/01/06 02:29:50;;;;;;;33.30;16.20;;;;;;;1.13;98.88;99626.98;105516;1253;73282;-50
2024/01/06 02:32:18;;;;;;;33.10;16.70;;;;;;;1.14;99.19;99629.40;105538;1256;81889;-49
2024/01/06 02:34:46;;;;;;;29.10;15.60;;;;;;;1.14;99.09;99626.46;105526;1253;71782;-49
2024/01/06 02:37:15;;;;;;;35.60;17.00;;;;;;;1.13;99.05;99625.45;105626;1253;70008;-50
2024/01/06 02:39:43;;;;;;;31.40;16.80;;;;;;;1.13;99.11;99624.93;105539;1256;70543;-49
2024/01/06 02:42:11;;;;;;;34.10;16.00;;;;;;;1.11;99.09;99626.34;105556;1254;73392;-49
2024/01/06 02:44:39;;;;;;;32.30;16.70;;;;;;;1.09;99.01;99627.73;105562;1255;81856;-49
2024/01/06 02:47:08;;;;;;;33.40;18.60;;;;;;;1.08;99.04;99633.41;105521;1256;71906;-50
2024/01/06 02:49:36;;;;;;;34.00;17.30;;;;;;;1.08;99.21;99628.93;105566;1253;69924;-49
2024/01/06 02:52:05;;;;;;;34.50;17.80;;;;;;;1.07;99.08;99621.89;105592;1256;70012;-49
2024/01/06 02:54:33;;;;;;;35.60;17.60;;;;;;;1.03;98.87;99614.55;105588;1255;71801;-50
2024/01/06 02:57:01;;;;;;;35.00;17.90;;;;;;;0.99;98.96;99614.41;105531;1256;81402;-50
2024/01/06 02:59:30;;;;;;;36.40;17.60;;;;;;;0.97;99.07;99622.36;105494;1253;70551;-50
2024/01/06 03:01:58;;;;;;;32.80;17.60;;;;;;;0.95;98.96;99632.69;105596;1254;69931;-50
2024/01/06 03:04:26;;;;;;;32.20;17.80;;;;;;;0.93;99.13;99643.02;105606;1255;70028;-49
2024/01/06 03:06:55;;;;;;;38.10;17.70;;;;;;;0.94;99.35;99640.79;105545;1253;72974;-51
2024/01/06 03:09:23;;;;;;;35.90;18.00;;;;;;;0.95;99.44;99641.13;105528;1255;81867;-50
2024/01/06 03:11:51;;;;;;;37.10;18.60;;;;;;;0.97;99.44;99640.92;105520;1253;72895;-48
2024/01/06 03:14:20;;;;;;;32.50;17.90;;;;;;;0.96;99.35;99636.29;105543;1255;69952;-49
2024/01/06 03:16:48;;;;;;;32.20;17.40;;;;;;;0.94;99.41;99633.73;105483;1253;70462;-49
2024/01/06 03:19:16;;;;;;;34.50;18.00;;;;;;;0.94;99.57;99633.04;105496;1252;73217;-50
2024/01/06 03:21:44;;;;;;;35.50;18.60;;;;;;;0.96;99.52;99634.23;105549;1255;81449;-49
2024/01/06 03:24:12;;;;;;;35.00;18.40;;;;;;;0.95;99.52;99635.80;105541;1256;71627;-51
2024/01/06 03:26:42;;;;;;;35.20;18.10;;;;;;;0.96;99.57;99638.53;105512;1255;69952;-53
2024/01/06 03:29:10;;;;;;;38.80;18.70;;;;;;;0.96;99.54;99636.29;105548;1255;69989;-48
2024/01/06 03:31:42;;;;;;;34.70;18.90;;;;;;;0.97;99.67;99633.53;105540;1253;73327;-50
2024/01/06 03:34:11;;;;;;;35.80;19.10;;;;;;;0.95;99.33;99633.21;105509;1253;80732;-49
2024/01/06 03:36:40;;;;;;;37.00;18.20;;;;;;;0.94;99.30;99632.86;105490;1253;71896;-50
2024/01/06 03:39:10;;;;;;;35.00;18.80;;;;;;;0.92;99.37;99633.76;105504;1253;69908;-50
2024/01/06 03:41:38;;;;;;;32.00;17.30;;;;;;;0.91;99.32;99642.71;105535;1253;70009;-51
2024/01/06 03:44:07;;;;;;;35.30;18.60;;;;;;;0.91;99.38;99647.87;105504;1255;72720;-49
2024/01/06 03:46:35;;;;;;;31.70;17.80;;;;;;;0.90;99.37;99652.86;105557;1255;83514;-49
2024/01/06 03:49:03;;;;;;;31.60;17.70;;;;;;;0.92;99.65;99653.72;105545;1255;71775;-50
2024/01/06 03:51:32;;;;;;;30.80;18.10;;;;;;;0.92;99.70;99658.01;105556;1256;70383;-49
2024/01/06 03:54:00;;;;;;;38.40;20.20;;;;;;;0.92;99.64;99657.50;105563;1255;70003;-50
2024/01/06 03:56:28;;;;;;;36.50;17.50;;;;;;;0.93;99.78;99664.19;105587;1253;73835;-49
2024/01/06 03:58:57;;;;;;;33.70;17.60;;;;;;;0.97;99.73;99665.88;105603;1255;82732;-50
2024/01/06 04:01:25;;;;;;;33.20;17.20;;;;;;;0.98;99.64;99665.86;105587;1254;72419;-49
2024/01/06 04:03:53;;;;;;;28.70;16.50;;;;;;;0.99;99.86;99669.80;105481;1254;69972;-55
2024/01/06 04:06:22;;;;;;;32.50;17.50;;;;;;;1.01;99.67;99674.60;105499;1255;69192;-51
2024/01/06 04:08:53;;;;;;;34.60;18.10;;;;;;;1.01;99.57;99672.88;105564;1253;72893;-50
2024/01/06 04:11:21;;;;;;;32.10;17.70;;;;;;;1.01;99.71;99674.77;105571;1253;80960;-50
2024/01/06 04:13:49;;;;;;;36.20;17.60;;;;;;;1.02;99.58;99677.86;105618;1254;70698;-52
2024/01/06 04:16:18;;;;;;;33.90;18.40;;;;;;;1.05;99.77;99681.11;105498;1253;69869;-50
2024/01/06 04:18:46;;;;;;;34.00;18.10;;;;;;;1.06;99.60;99680.75;105510;1256;69999;-50
2024/01/06 04:21:14;;;;;;;32.30;18.30;;;;;;;1.05;99.76;99684.04;105496;1253;73216;-51
2024/01/06 04:23:42;;;;;;;32.90;17.60;;;;;;;1.05;99.63;99683.69;105528;1255;81381;-51
2024/01/06 04:26:11;;;;;;;37.20;18.80;;;;;;;1.07;99.89;99689.52;105482;1253;71933;-50
2024/01/06 04:28:40;;;;;;;33.20;18.30;;;;;;;1.07;99.69;99688.48;105558;1255;69991;-50
2024/01/06 04:31:08;;;;;;;36.30;18.60;;;;;;;1.08;99.60;99688.64;105491;1255;69967;-51
2024/01/06 04:33:40;;;;;;;37.20;18.70;;;;;;;1.08;99.55;99692.77;105499;1253;74059;-50
2024/01/06 04:36:09;;;;;;;33.70;18.10;;;;;;;1.06;99.44;99693.14;105545;1256;82873;-50
2024/01/06 04:38:37;;;;;;;33.30;17.90;;;;;;;1.05;99.66;99689.71;105495;1252;71677;-50
2024/01/06 04:41:05;;;;;;;35.90;18.00;;;;;;;1.05;99.67;99687.13;105501;1253;69896;-51
2024/01/06 04:43:33;;;;;;;35.00;17.50;;;;;;;1.06;99.71;99682.98;105403;1253;70003;-50
2024/01/06 04:46:02;;;;;;;32.80;17.70;;;;;;;1.07;99.77;99683.48;105505;1253;72956;-50
2024/01/06 04:48:30;;;;;;;31.10;16.70;;;;;;;1.09;99.75;99683.98;105576;1255;82510;-51
2024/01/06 04:50:59;;;;;;;33.20;17.80;;;;;;;1.10;99.74;99683.80;105532;1255;71871;-52
2024/01/06 04:53:27;;;;;;;29.30;17.80;;;;;;;1.14;99.92;99682.39;105514;1254;69113;-52
2024/01/06 04:55:55;;;;;;;34.90;18.60;;;;;;;1.14;99.85;99680.50;105481;1253;69113;-52
2024/01/06 04:58:23;;;;;;;34.30;17.40;;;;;;;1.16;99.91;99684.44;105554;1253;73556;-53
2024/01/06 05:00:52;;;;;;;34.40;17.80;;;;;;;1.17;99.77;99689.59;105517;1255;81459;-53
2024/01/06 05:03:20;;;;;;;35.00;18.90;;;;;;;1.17;99.60;99694.58;105510;1255;72146;-54
2024/01/06 05:05:49;;;;;;;37.30;17.90;;;;;;;1.15;99.55;99698.38;105531;1254;69106;-54
2024/01/06 05:08:18;;;;;;;34.20;17.80;;;;;;;1.15;99.54;99694.27;105535;1255;69191;-52
2024/01/06 05:10:47;;;;;;;33.80;18.40;;;;;;;1.14;99.35;99690.82;105618;1253;73152;-53
2024/01/06 05:13:17;;;;;;;35.90;18.40;;;;;;;1.14;99.52;99696.67;105566;1253;82699;-50
2024/01/06 05:15:45;;;;;;;33.50;17.80;;;;;;;1.11;99.36;99703.59;105524;1256;70464;-52
2024/01/06 05:18:14;;;;;;;34.70;17.70;;;;;;;1.10;99.46;99710.98;105514;1255;69112;-52
2024/01/06 05:20:43;;;;;;;35.40;18.90;;;;;;;1.11;99.38;99712.54;105549;1256;70427;-50
2024/01/06 05:23:11;;;;;;;35.30;18.50;;;;;;;1.10;99.34;99712.02;105550;1255;72295;-50
2024/01/06 05:25:39;;;;;;;37.60;19.40;;;;;;;1.10;99.55;99714.77;105562;1255;81736;-51
2024/01/06 05:28:07;;;;;;;36.60;18.40;;;;;;;1.10;99.42;99717.35;105484;1255;71761;-54
2024/01/06 05:30:36;;;;;;;36.60;20.20;;;;;;;1.10;99.50;99723.21;105505;1254;69121;-55
2024/01/06 05:33:04;;;;;;;36.40;19.00;;;;;;;1.09;99.45;99724.26;105511;1255;69145;-55
2024/01/06 05:35:32;;;;;;;33.70;17.50;;;;;;;1.08;99.43;99723.74;105527;1253;73063;-54
2024/01/06 05:38:01;;;;;;;33.00;17.20;;;;;;;1.09;99.55;99719.27;105514;1255;81825;-53
2024/01/06 05:40:29;;;;;;;34.50;19.50;;;;;;;1.09;99.54;99721.67;105453;1253;72097;-54
2024/01/06 05:42:57;;;;;;;33.00;17.70;;;;;;;1.11;99.48;99723.04;105516;1253;69174;-54
2024/01/06 05:45:26;;;;;;;38.00;18.10;;;;;;;1.11;99.59;99720.96;105547;1256;69776;-52
2024/01/06 05:47:57;;;;;;;36.40;18.70;;;;;;;1.14;99.71;99724.20;105593;1254;72855;-55
2024/01/06 05:50:26;;;;;;;34.10;18.40;;;;;;;1.13;99.57;99724.37;105519;1253;81900;-54
2024/01/06 05:52:54;;;;;;;36.40;18.30;;;;;;;1.15;99.64;99726.77;105497;1256;71772;-52
2024/01/06 05:55:23;;;;;;;35.10;17.90;;;;;;;1.16;99.48;99731.41;105498;1255;69876;-52
2024/01/06 05:57:51;;;;;;;33.00;17.60;;;;;;;1.17;99.62;99731.41;105555;1254;70022;-50
2024/01/06 06:00:19;;;;;;;32.90;19.00;;;;;;;1.16;99.46;99726.59;105604;1256;72914;-53
2024/01/06 06:02:48;;;;;;;35.00;18.40;;;;;;;1.14;99.21;99729.72;105552;1255;81499;-49
2024/01/06 06:05:16;;;;;;;33.60;19.00;;;;;;;1.14;99.23;99735.20;105565;1252;71436;-52
2024/01/06 06:07:44;;;;;;;29.10;18.00;;;;;;;1.14;99.38;99734.20;105502;1253;69794;-53
2024/01/06 06:10:12;;;;;;;40.10;20.50;;;;;;;1.11;99.24;99734.38;105476;1256;69190;-50
2024/01/06 06:12:41;;;;;;;34.00;19.40;;;;;;;1.10;99.29;99741.27;105506;1253;73090;-53
2024/01/06 06:15:10;;;;;;;36.90;19.90;;;;;;;1.08;99.18;99746.28;105573;1254;81682;-53
2024/01/06 06:17:39;;;;;;;33.00;18.20;;;;;;;1.06;99.08;99751.13;105546;1256;72214;-53
2024/01/06 06:20:07;;;;;;;32.70;17.80;;;;;;;1.04;99.14;99750.63;105577;1256;69906;-53
2024/01/06 06:22:35;;;;;;;31.20;18.00;;;;;;;1.03;99.22;99752.70;105514;1256;69250;-54
2024/01/06 06:25:05;;;;;;;36.70;18.90;;;;;;;1.05;99.47;99763.34;105537;1253;71396;-52
2024/01/06 06:27:33;;;;;;;37.50;19.60;;;;;;;1.06;99.72;99773.30;105531;1258;83146;-52
2024/01/06 06:30:02;;;;;;;37.40;18.40;;;;;;;1.05;99.43;99781.77;105527;1254;72001;-51
2024/01/06 06:32:30;;;;;;;37.40;18.50;;;;;;;1.03;99.35;99787.61;105552;1253;69152;-49
2024/01/06 06:34:58;;;;;;;32.50;18.00;;;;;;;1.01;99.33;99793.66;105605;1255;69893;-52
2024/01/06 06:37:27;;;;;;;35.80;19.00;;;;;;;0.99;99.27;99799.00;105607;1253;73536;-52
2024/01/06 06:39:55;;;;;;;33.20;17.90;;;;;;;0.99;99.44;99803.48;105521;1255;81621;-54
2024/01/06 06:42:23;;;;;;;33.20;17.90;;;;;;;0.97;99.44;99809.69;105520;1254;71825;-52
2024/01/06 06:44:52;;;;;;;30.60;17.80;;;;;;;0.98;99.57;99816.56;105556;1253;69894;-53
2024/01/06 06:47:20;;;;;;;33.00;17.80;;;;;;;0.98;99.57;99825.86;105472;1254;69276;-52
2024/01/06 06:49:48;;;;;;;32.10;18.10;;;;;;;0.95;99.33;99836.53;105518;1253;74053;-52
2024/01/06 06:52:16;;;;;;;31.70;18.10;;;;;;;0.94;99.41;99843.25;105573;1256;81756;-54
2024/01/06 06:54:44;;;;;;;30.10;16.90;;;;;;;0.94;99.52;99845.14;105520;1255;72624;-53
2024/01/06 06:57:12;;;;;;;32.20;17.20;;;;;;;0.94;99.61;99853.23;105556;1253;70045;-54
2024/01/06 06:59:41;;;;;;;31.60;18.20;;;;;;;0.92;99.47;99857.89;105527;1252;69279;-53
2024/01/06 07:02:09;;;;;;;30.20;17.40;;;;;;;0.88;99.24;99861.69;105617;1253;73565;-50
2024/01/06 07:04:37;;;;;;;33.70;18.20;;;;;;;0.88;99.40;99861.36;105502;1255;81890;-54
2024/01/06 07:07:05;;;;;;;33.60;18.10;;;;;;;0.88;99.46;99863.93;105488;1253;71640;-53
2024/01/06 07:09:33;;;;;;;30.90;18.60;;;;;;;0.88;99.43;99865.30;105564;1253;69143;-54
2024/01/06 07:12:02;;;;;;;32.20;17.40;;;;;;;0.87;99.48;99869.44;105582;1255;69307;-51
2024/01/06 07:14:30;;;;;;;29.80;18.00;;;;;;;0.87;99.61;99870.65;105537;1254;73054;-57
2024/01/06 07:16:59;;;;;;;32.90;17.20;;;;;;;0.87;99.45;99872.36;105569;1256;81430;-49
2024/01/06 07:19:27;;;;;;;32.90;17.80;;;;;;;0.87;99.47;99872.89;105707;1256;72889;-52
2024/01/06 07:21:55;;;;;;;36.00;18.30;;;;;;;0.86;99.34;99871.52;105696;1256;69989;-50
2024/01/06 07:24:24;;;;;;;30.60;17.20;;;;;;;0.85;99.43;99873.77;105716;1256;69987;-49
2024/01/06 07:26:52;;;;;;;31.70;17.80;;;;;;;0.83;99.38;99872.23;105635;1255;72651;-48
2024/01/06 07:29:21;;;;;;;34.80;17.70;;;;;;;0.84;99.26;99870.33;105643;1254;82346;-51
2024/01/06 07:31:49;;;;;;;31.80;17.50;;;;;;;0.84;99.40;99875.13;105527;1253;70482;-52
2024/01/06 07:34:17;;;;;;;31.20;16.60;;;;;;;0.85;99.45;99877.54;105533;1255;69157;-51
2024/01/06 07:36:46;;;;;;;32.50;17.30;;;;;;;0.85;99.44;99880.45;105662;1256;69856;-52
2024/01/06 07:39:14;;;;;;;33.80;17.70;;;;;;;0.86;99.19;99885.80;105603;1256;74276;-50
2024/01/06 07:41:42;;;;;;;32.00;18.00;;;;;;;0.84;99.34;99892.00;105552;1256;81392;-50
2024/01/06 07:44:10;;;;;;;32.10;18.40;;;;;;;0.84;99.07;99892.70;105537;1253;70632;-55
2024/01/06 07:46:40;;;;;;;32.40;17.50;;;;;;;0.84;99.20;99891.48;105506;1256;69200;-53
2024/01/06 07:49:08;;;;;;;32.50;19.70;;;;;;;0.86;99.50;99889.06;105573;1256;69926;-49
2024/01/06 07:51:36;;;;;;;31.60;18.50;;;;;;;0.87;99.37;99896.62;105549;1256;71632;-50
2024/01/06 07:54:06;;;;;;;32.90;18.50;;;;;;;0.89;99.30;99898.50;105566;1255;82217;-50
2024/01/06 07:56:34;;;;;;;29.50;18.70;;;;;;;0.91;99.34;99902.45;105553;1253;72013;-50
2024/01/06 07:59:04;;;;;;;34.10;18.30;;;;;;;0.92;99.33;99905.20;105702;1253;69951;-54
2024/01/06 08:01:32;;;;;;;31.60;17.50;;;;;;;0.93;99.25;99905.37;105590;1255;70068;-53
2024/01/06 08:04:00;;;;;;;34.40;18.40;;;;;;;0.89;99.08;99910.55;105778;1253;72613;-49
2024/01/06 08:06:29;;;;;;;27.80;16.50;;;;;;;0.90;99.14;99917.95;105693;1255;81780;-52
2024/01/06 08:08:57;;;;;;;29.60;16.90;;;;;;;0.90;99.29;99921.55;105599;1254;71944;-50
2024/01/06 08:11:25;;;;;;;29.90;16.70;;;;;;;0.94;99.18;99927.89;105529;1256;70323;-51
2024/01/06 08:13:53;;;;;;;29.90;17.50;;;;;;;0.97;99.41;99932.17;105681;1256;69928;-50
2024/01/06 08:16:21;;;;;;;29.70;17.40;;;;;;;0.99;99.41;99939.05;105513;1253;73196;-53
2024/01/06 08:18:50;;;;;;;31.70;18.10;;;;;;;1.02;99.24;99942.82;105665;1256;81912;-49
2024/01/06 08:21:18;;;;;;;28.80;17.20;;;;;;;1.04;99.16;99944.52;105588;1258;71285;-51
2024/01/06 08:23:47;;;;;;;31.40;18.30;;;;;;;1.09;98.97;99948.97;105552;1254;69918;-49
2024/01/06 08:26:15;;;;;;;29.70;17.10;;;;;;;1.12;99.03;99951.52;105510;1254;70005;-50
2024/01/06 08:28:43;;;;;;;31.00;17.70;;;;;;;1.16;99.00;99958.04;105553;1253;73265;-54
2024/01/06 08:31:11;;;;;;;28.30;16.80;;;;;;;1.21;99.16;99954.75;105503;1255;81210;-51
2024/01/06 08:33:40;;;;;;;28.40;17.00;;;;;;;1.26;99.10;99956.27;105522;1253;71560;-52
2024/01/06 08:36:09;;;;;;;30.50;17.70;;;;;;;1.30;98.91;99959.68;105625;1254;69865;-49
2024/01/06 08:38:37;;;;;;;30.10;17.50;;;;;;;1.28;98.55;99957.98;105721;1254;71534;-50
2024/01/06 08:41:05;;;;;;;30.90;18.60;;;;;;;1.28;98.57;99963.65;105626;1256;73430;-50
2024/01/06 08:43:33;;;;;;;26.50;17.10;;;;;;;1.30;98.47;99971.90;105553;1256;81775;-53
2024/01/06 08:46:02;;;;;;;27.90;17.20;;;;;;;1.32;98.66;99975.85;105520;1255;72711;-51
2024/01/06 08:48:30;;;;;;;30.10;18.70;;;;;;;1.29;98.16;99983.62;105622;1255;69805;-48
2024/01/06 08:51:02;;;;;;;31.40;18.70;;;;;;;1.25;97.98;99986.75;105510;1257;69996;-47
2024/01/06 08:53:31;;;;;;;27.20;16.90;;;;;;;1.22;98.16;99988.65;105579;1256;73357;-49
2024/01/06 08:55:59;;;;;;;30.60;18.00;;;;;;;1.20;98.05;99997.79;105646;1257;81656;-50
2024/01/06 08:58:27;;;;;;;28.20;17.80;;;;;;;1.20;98.14;99998.81;105437;1254;72261;-49
2024/01/06 09:00:55;;;;;;;31.80;19.30;;;;;;;1.19;98.14;100001.92;105543;1256;69988;-49
2024/01/06 09:03:24;;;;;;;31.30;19.90;;;;;;;1.17;97.93;100005.89;105606;1255;69132;-49
2024/01/06 09:05:55;;;;;;;34.00;21.80;;;;;;;1.14;98.12;100012.27;105589;1257;72844;-52
2024/01/06 09:08:24;;;;;;;38.50;22.20;;;;;;;1.12;98.06;100012.80;105620;1258;83293;-52
2024/01/06 09:10:56;;;;;;;36.30;21.90;;;;;;;1.10;98.11;100012.48;105619;1256;72345;-52
2024/01/06 09:13:25;;;;;;;36.80;22.80;;;;;;;1.08;98.16;100012.98;105485;1259;69990;-50
2024/01/06 09:15:53;;;;;;;40.10;24.60;;;;;;;1.08;97.99;100014.52;105593;1256;69993;-51
2024/01/06 09:18:22;;;;;;;38.90;24.40;;;;;;;1.07;98.21;100020.89;105356;1258;73963;-52
2024/01/06 09:20:51;;;;;;;40.70;24.30;;;;;;;1.08;98.27;100022.79;105865;1254;81418;-50
2024/01/06 09:23:20;;;;;;;43.80;27.00;;;;;;;1.10;98.22;100026.92;105654;1254;71591;-49
2024/01/06 09:25:52;;;;;;;43.20;26.70;;;;;;;1.09;98.05;100030.52;105652;1256;69915;-54
2024/01/06 09:28:21;;;;;;;43.90;26.70;;;;;;;1.07;98.19;100027.44;105595;1255;69796;-50
2024/01/06 09:30:52;;;;;;;43.70;28.00;;;;;;;1.07;97.96;100023.14;105672;1254;73094;-50
2024/01/06 09:33:20;;;;;;;47.70;28.60;;;;;;;1.07;97.86;100028.30;105665;1266;82219;-51
2024/01/06 09:35:50;;;;;;;42.40;27.80;;;;;;;1.07;97.95;100028.82;105609;1259;72113;-51
2024/01/06 09:38:19;;;;;;;47.10;30.20;;;;;;;1.08;97.90;100031.73;105604;1256;69995;-50
2024/01/06 09:40:48;;;;;;;48.60;29.60;;;;;;;1.10;98.28;100031.39;105693;1256;69935;-50
2024/01/06 09:43:17;;;;;;;43.80;28.10;;;;;;;1.12;98.14;100029.83;105643;1256;73140;-53
2024/01/06 09:45:57;;;;;;;45.60;28.90;;;;;;;1.14;98.17;100028.79;105534;1256;82934;-52
2024/01/06 09:48:30;;;;;;;47.50;29.20;;;;;;;1.16;98.11;100029.30;105749;1258;71961;-51
2024/01/06 09:51:02;;;;;;;46.60;28.40;;;;;;;1.18;98.11;100030.33;105661;1264;69132;-51
2024/01/06 09:53:36;;;;;;;50.20;30.40;;;;;;;1.19;98.08;100033.59;105654;1256;69930;-51
2024/01/06 09:56:05;;;;;;;49.30;30.90;;;;;;;1.20;98.16;100033.06;105594;1256;73050;-50
2024/01/06 09:58:34;;;;;;;49.70;29.70;;;;;;;1.22;98.21;100030.46;105567;1256;82541;-53
2024/01/06 10:01:03;;;;;;;50.30;30.70;;;;;;;1.26;98.15;100028.21;105580;1258;71810;-51
2024/01/06 10:03:31;;;;;;;51.00;31.10;;;;;;;1.30;98.15;100026.31;105646;1257;69121;-51
2024/01/06 10:06:03;;;;;;;51.30;30.80;;;;;;;1.34;98.25;100026.45;105526;1255;69979;-49
2024/01/06 10:08:32;;;;;;;54.90;32.40;;;;;;;1.38;98.13;100028.49;105575;1257;73202;-50
2024/01/06 10:11:01;;;;;;;56.10;34.40;;;;;;;1.36;97.72;100028.16;105602;1256;82761;-53
2024/01/06 10:13:29;;;;;;;51.30;31.40;;;;;;;1.34;97.69;100028.16;105622;1255;72239;-53
2024/01/06 10:15:58;;;;;;;52.90;33.20;;;;;;;1.35;97.79;100035.91;105476;1256;69146;-55
2024/01/06 10:18:29;;;;;;;55.00;33.20;;;;;;;1.35;97.68;100035.55;105519;1256;69145;-52
2024/01/06 10:21:00;;;;;;;54.30;32.30;;;;;;;1.34;97.60;100037.13;105549;1257;72864;-50
2024/01/06 10:23:28;;;;;;;53.60;32.80;;;;;;;1.32;97.46;100037.64;105531;1255;81550;-51
2024/01/06 10:25:56;;;;;;;56.10;32.00;;;;;;;1.29;97.54;100042.83;105537;1254;70863;-52
2024/01/06 10:28:27;;;;;;;51.30;31.80;;;;;;;1.25;97.42;100045.44;105518;1255;69914;-50
2024/01/06 10:30:56;;;;;;;56.40;33.10;;;;;;;1.22;97.30;100043.20;105520;1257;69993;-52
2024/01/06 10:33:26;;;;;;;51.00;30.60;;;;;;;1.18;97.26;100039.79;105533;1257;73562;-50
2024/01/06 10:35:55;;;;;;;56.80;32.20;;;;;;;1.18;97.44;100042.54;105524;1256;82084;-50
2024/01/06 10:38:26;;;;;;;48.80;29.90;;;;;;;1.19;97.69;100043.73;105582;1257;70547;-53
2024/01/06 10:40:58;;;;;;;;;;;;;;;1.20;97.53;100041.50;105579;1255;69916;-51
2024/01/06 10:43:30;;;;;;;53.50;31.20;;;;;;;1.20;97.49;100040.64;105402;1256;69140;-51
2024/01/06 10:45:59;;;;;;;51.10;29.70;;;;;;;1.19;97.31;100042.70;105557;1257;71605;-53
2024/01/06 10:48:28;;;;;;;50.70;30.30;;;;;;;1.16;97.42;100043.92;105482;1257;80773;-51
2024/01/06 10:50:58;;;;;;;46.80;27.70;;;;;;;1.16;97.42;100043.73;105557;1254;71719;-53
2024/01/06 10:53:27;;;;;;;50.60;29.70;;;;;;;1.18;97.67;100045.29;105550;1257;69804;-52
2024/01/06 10:55:55;;;;;;;64.60;30.60;;;;;;;1.20;97.60;100040.47;105523;1256;69887;-53
2024/01/06 10:58:24;;;;;;;48.90;27.80;;;;;;;1.22;97.79;100042.67;105569;1257;73383;-51
2024/01/06 11:00:54;;;;;;;46.70;28.10;;;;;;;1.22;97.59;100039.08;105608;1257;83109;-51
2024/01/06 11:03:22;;;;;;;44.50;27.20;;;;;;;1.21;97.55;100035.98;105503;1253;71636;-50
2024/01/06 11:05:51;;;;;;;46.90;27.10;;;;;;;1.22;97.60;100039.25;105554;1255;69113;-50
2024/01/06 11:08:21;;;;;;;46.70;27.60;;;;;;;1.23;97.45;100037.70;105512;1257;69901;-51
2024/01/06 11:10:49;;;;;;;50.60;30.10;;;;;;;1.23;97.60;100040.10;105569;1257;72936;-58
2024/01/06 11:13:22;;;;;;;49.50;29.20;;;;;;;1.24;97.80;100037.52;105621;1255;81338;-51
2024/01/06 11:15:54;;;;;;;52.10;31.40;;;;;;;1.21;97.58;100037.36;105528;1256;73080;-50
2024/01/06 11:18:40;;;;;;;55.10;31.30;;;;;;;1.20;97.51;100037.37;105515;1257;69882;-50
2024/01/06 11:21:17;;;;;;;50.50;29.20;;;;;;;1.20;97.60;100037.71;105558;1256;69199;-56
2024/01/06 11:23:46;;;;;;;52.10;29.60;;;;;;;1.17;97.45;100038.41;105540;1254;73474;-53